TimeCDT,TemperatureF,Dew PointF,Humidity,Sea Level PressureIn,VisibilityMPH,Wind Direction,Wind SpeedMPH,Gust SpeedMPH,PrecipitationIn,Events,Conditions,WindDirDegrees,DateUTC
12:15 AM,71.8,59.0,64,30.04,10.0,SSE,6.9,-,N/A,,Clear,150,2013-09-04 05:15:00
12:35 AM,72.1,58.6,62,30.04,10.0,SSE,5.8,-,N/A,,Scattered Clouds,150,2013-09-04 05:35:00
12:55 AM,72.5,58.1,60,30.04,10.0,SE,6.9,-,N/A,,Mostly Cloudy,140,2013-09-04 05:55:00
1:15 AM,72.3,57.7,60,30.05,10.0,SE,6.9,-,N/A,,Mostly Cloudy,140,2013-09-04 06:15:00
1:35 AM,72.1,57.4,60,30.05,10.0,SE,5.8,-,N/A,,Mostly Cloudy,140,2013-09-04 06:35:00
1:55 AM,71.8,57.4,60,30.05,10.0,SE,4.6,-,N/A,,Mostly Cloudy,140,2013-09-04 06:55:00
2:15 AM,72.0,57.2,60,30.06,10.0,SE,5.8,-,N/A,,Overcast,140,2013-09-04 07:15:00
2:35 AM,71.6,57.2,60,30.06,10.0,SE,5.8,-,N/A,,Scattered Clouds,140,2013-09-04 07:35:00
2:55 AM,71.2,57.0,61,30.06,10.0,SSE,4.6,-,N/A,,Clear,150,2013-09-04 07:55:00
3:15 AM,70.2,57.4,64,30.07,10.0,SSE,4.6,-,N/A,,Clear,150,2013-09-04 08:15:00
3:35 AM,70.2,57.2,63,30.06,10.0,SSE,4.6,-,N/A,,Clear,160,2013-09-04 08:35:00
3:55 AM,70.0,57.0,63,30.06,10.0,SSE,5.8,-,N/A,,Clear,150,2013-09-04 08:55:00
4:15 AM,69.1,57.4,66,30.06,10.0,SSE,6.9,-,N/A,,Scattered Clouds,160,2013-09-04 09:15:00
4:35 AM,70.0,57.2,64,30.07,10.0,SSE,8.1,-,N/A,Thunderstorm,Mostly Cloudy,160,2013-09-04 09:35:00
4:55 AM,70.3,57.2,63,30.08,10.0,South,6.9,-,N/A,Thunderstorm,Overcast,180,2013-09-04 09:55:00
5:15 AM,70.7,57.2,62,30.07,10.0,SSE,9.2,-,N/A,Thunderstorm,Scattered Clouds,160,2013-09-04 10:15:00
5:35 AM,70.3,57.7,64,30.07,10.0,SSE,9.2,-,N/A,Thunderstorm,Thunderstorm,160,2013-09-04 10:35:00
5:55 AM,70.2,57.9,65,30.07,10.0,South,8.1,-,N/A,,Clear,170,2013-09-04 10:55:00
6:15 AM,70.2,58.1,65,30.08,10.0,SSW,8.1,-,N/A,,Mostly Cloudy,200,2013-09-04 11:15:00
6:35 AM,71.1,58.3,64,30.07,10.0,South,10.4,16.1,N/A,,Mostly Cloudy,180,2013-09-04 11:35:00
6:55 AM,72.5,58.5,61,30.08,10.0,SSW,13.8,20.7,N/A,,Mostly Cloudy,200,2013-09-04 11:55:00
7:15 AM,72.0,59.9,66,30.08,10.0,South,15.0,19.6,N/A,Rain,Light Rain,180,2013-09-04 12:15:00
7:35 AM,71.6,59.5,66,30.07,10.0,South,13.8,19.6,N/A,,Clear,180,2013-09-04 12:35:00
7:55 AM,72.1,59.0,63,30.08,10.0,South,12.7,21.9,N/A,,Clear,190,2013-09-04 12:55:00
8:15 AM,72.1,59.2,64,30.08,10.0,South,12.7,18.4,N/A,,Clear,180,2013-09-04 13:15:00
8:35 AM,73.4,58.5,59,30.08,10.0,South,11.5,18.4,N/A,,Clear,170,2013-09-04 13:35:00
8:55 AM,72.9,59.4,62,30.09,10.0,South,11.5,-,N/A,,Clear,170,2013-09-04 13:55:00
9:15 AM,74.8,60.3,60,30.09,10.0,South,11.5,16.1,N/A,,Clear,170,2013-09-04 14:15:00
9:35 AM,76.1,60.4,58,30.08,10.0,South,15.0,-,N/A,,Clear,170,2013-09-04 14:35:00
9:55 AM,77.9,61.0,56,30.09,10.0,SSE,13.8,19.6,N/A,,Clear,160,2013-09-04 14:55:00
10:15 AM,79.5,61.3,54,30.10,10.0,South,13.8,19.6,N/A,,Clear,170,2013-09-04 15:15:00
10:35 AM,80.2,60.6,51,30.10,10.0,SSE,17.3,21.9,N/A,,Clear,160,2013-09-04 15:35:00
10:55 AM,82.0,61.3,49,30.11,10.0,SSE,15.0,-,N/A,,Clear,160,2013-09-04 15:55:00
11:15 AM,82.9,61.0,47,30.11,10.0,SSE,13.8,20.7,N/A,,Clear,160,2013-09-04 16:15:00
11:35 AM,83.5,61.0,46,30.11,10.0,South,12.7,17.3,N/A,,Clear,170,2013-09-04 16:35:00
11:55 AM,84.2,61.3,46,30.11,10.0,South,13.8,-,N/A,,Clear,170,2013-09-04 16:55:00
12:15 PM,84.9,60.6,44,30.10,10.0,South,13.8,19.6,N/A,,Clear,170,2013-09-04 17:15:00
12:35 PM,86.0,59.0,40,30.10,10.0,South,16.1,23.0,N/A,,Clear,180,2013-09-04 17:35:00
12:55 PM,86.2,59.2,40,30.09,10.0,South,17.3,21.9,N/A,,Clear,180,2013-09-04 17:55:00
1:15 PM,86.9,59.7,40,30.08,10.0,South,15.0,21.9,N/A,,Clear,190,2013-09-04 18:15:00
1:35 PM,87.3,58.6,38,30.08,10.0,South,16.1,21.9,N/A,,Clear,170,2013-09-04 18:35:00
1:55 PM,88.3,59.4,37,30.08,10.0,South,13.8,20.7,N/A,,Clear,170,2013-09-04 18:55:00
2:15 PM,88.5,57.9,35,30.08,10.0,South,13.8,21.9,N/A,,Clear,170,2013-09-04 19:15:00
2:35 PM,88.7,57.7,35,30.08,10.0,South,13.8,-,N/A,,Clear,190,2013-09-04 19:35:00
2:55 PM,89.2,57.4,34,30.08,10.0,South,13.8,21.9,N/A,,Clear,170,2013-09-04 19:55:00
3:15 PM,88.9,55.9,33,30.08,10.0,South,13.8,18.4,N/A,,Clear,170,2013-09-04 20:15:00
3:35 PM,88.9,54.9,31,30.08,10.0,South,12.7,18.4,N/A,,Clear,170,2013-09-04 20:35:00
3:55 PM,89.1,55.4,32,30.07,10.0,SSE,15.0,18.4,N/A,,Clear,150,2013-09-04 20:55:00
4:15 PM,88.7,53.4,30,30.07,10.0,South,11.5,-,N/A,,Clear,170,2013-09-04 21:15:00
4:35 PM,88.9,52.7,29,30.07,10.0,SSE,15.0,-,N/A,,Clear,150,2013-09-04 21:35:00
4:55 PM,88.9,54.9,31,30.06,10.0,SSE,13.8,-,N/A,,Clear,150,2013-09-04 21:55:00
5:15 PM,89.1,49.1,25,30.06,10.0,SSE,15.0,20.7,N/A,,Clear,160,2013-09-04 22:15:00
5:35 PM,88.7,50.0,26,30.06,10.0,SSE,12.7,-,N/A,,Clear,150,2013-09-04 22:35:00
5:55 PM,87.8,49.8,27,30.06,10.0,SSE,10.4,19.6,N/A,,Clear,160,2013-09-04 22:55:00
6:15 PM,87.1,47.7,25,30.06,10.0,SSE,15.0,24.2,N/A,,Clear,150,2013-09-04 23:15:00
6:35 PM,85.6,48.7,28,30.06,10.0,South,15.0,18.4,N/A,,Clear,170,2013-09-04 23:35:00
6:55 PM,84.6,51.6,32,30.06,10.0,SSE,9.2,-,N/A,,Clear,150,2013-09-04 23:55:00
7:15 PM,83.7,54.3,36,30.06,10.0,SSE,13.8,18.4,N/A,,Clear,150,2013-09-05 00:15:00
7:35 PM,82.4,54.7,38,30.06,10.0,SSE,9.2,17.3,N/A,,Clear,150,2013-09-05 00:35:00
7:55 PM,80.1,57.6,46,30.07,10.0,SE,6.9,-,N/A,,Clear,140,2013-09-05 00:55:00
8:15 PM,80.1,55.8,43,30.07,10.0,SSE,8.1,-,N/A,,Clear,150,2013-09-05 01:15:00
8:35 PM,77.7,57.2,49,30.07,10.0,SE,5.8,-,N/A,,Clear,130,2013-09-05 01:35:00
8:55 PM,76.6,58.8,54,30.08,10.0,SE,5.8,-,N/A,,Clear,130,2013-09-05 01:55:00
9:15 PM,75.7,59.9,58,30.08,10.0,SE,6.9,-,N/A,,Clear,140,2013-09-05 02:15:00
9:35 PM,75.7,60.8,60,30.09,10.0,SE,8.1,-,N/A,,Clear,140,2013-09-05 02:35:00
9:55 PM,75.9,60.6,59,30.10,10.0,SSE,9.2,-,N/A,,Clear,150,2013-09-05 02:55:00
10:15 PM,76.1,59.4,56,30.11,10.0,SSE,9.2,-,N/A,,Clear,150,2013-09-05 03:15:00
10:35 PM,76.1,58.5,54,30.12,10.0,SSE,9.2,-,N/A,,Clear,150,2013-09-05 03:35:00
10:55 PM,75.2,58.1,55,30.12,10.0,SSE,9.2,-,N/A,,Clear,150,2013-09-05 03:55:00
11:15 PM,73.9,58.1,58,30.12,10.0,SE,8.1,-,N/A,,Clear,140,2013-09-05 04:15:00
11:35 PM,73.0,60.1,64,30.11,10.0,SE,8.1,-,N/A,,Clear,130,2013-09-05 04:35:00
11:55 PM,72.0,61.5,70,30.11,10.0,SE,8.1,-,N/A,,Clear,140,2013-09-05 04:55:00